sensor_id;sensor_type;location;lat;lon;timestamp;temperature;humidity
14475;DHT22;7323;50.848;4.334;2023-09-12T00:00:55;22.70;7.20
14475;DHT22;7323;50.848;4.334;2023-09-12T00:03:23;22.80;3.40
14475;DHT22;7323;50.848;4.334;2023-09-12T00:05:58;22.90;1.00
14475;DHT22;7323;50.848;4.334;2023-09-12T00:08:24;23.00;1.00
14475;DHT22;7323;50.848;4.334;2023-09-12T00:11:07;23.00;1.00
14475;DHT22;7323;50.848;4.334;2023-09-12T00:13:37;23.00;1.00
14475;DHT22;7323;50.848;4.334;2023-09-12T00:16:03;23.00;1.00
14475;DHT22;7323;50.848;4.334;2023-09-12T00:18:31;23.00;1.00
14475;DHT22;7323;50.848;4.334;2023-09-12T00:20:58;23.00;1.00
14475;DHT22;7323;50.848;4.334;2023-09-12T00:23:27;23.10;1.00
14475;DHT22;7323;50.848;4.334;2023-09-12T00:25:53;23.00;1.00
14475;DHT22;7323;50.848;4.334;2023-09-12T00:28:21;23.10;1.00
14475;DHT22;7323;50.848;4.334;2023-09-12T00:30:48;23.30;1.00
14475;DHT22;7323;50.848;4.334;2023-09-12T00:33:14;23.20;1.00
14475;DHT22;7323;50.848;4.334;2023-09-12T00:35:40;23.10;1.00
14475;DHT22;7323;50.848;4.334;2023-09-12T00:38:05;23.20;1.00
14475;DHT22;7323;50.848;4.334;2023-09-12T00:40:34;23.10;1.00
14475;DHT22;7323;50.848;4.334;2023-09-12T00:42:59;23.10;1.00
14475;DHT22;7323;50.848;4.334;2023-09-12T00:45:25;23.20;1.00
14475;DHT22;7323;50.848;4.334;2023-09-12T00:47:51;23.20;1.00
14475;DHT22;7323;50.848;4.334;2023-09-12T00:50:20;23.30;1.00
14475;DHT22;7323;50.848;4.334;2023-09-12T00:52:47;23.30;1.00
14475;DHT22;7323;50.848;4.334;2023-09-12T00:55:13;23.40;1.00
14475;DHT22;7323;50.848;4.334;2023-09-12T00:57:40;23.50;1.00
14475;DHT22;7323;50.848;4.334;2023-09-12T01:00:06;23.60;1.00
14475;DHT22;7323;50.848;4.334;2023-09-12T01:02:39;23.60;1.00
14475;DHT22;7323;50.848;4.334;2023-09-12T01:05:07;23.60;1.00
14475;DHT22;7323;50.848;4.334;2023-09-12T01:07:34;23.60;1.00
14475;DHT22;7323;50.848;4.334;2023-09-12T01:09:59;23.60;1.00
14475;DHT22;7323;50.848;4.334;2023-09-12T01:12:25;23.30;1.00
14475;DHT22;7323;50.848;4.334;2023-09-12T01:14:52;23.00;1.00
14475;DHT22;7323;50.848;4.334;2023-09-12T01:17:18;22.90;1.00
14475;DHT22;7323;50.848;4.334;2023-09-12T01:19:45;22.70;10.60
14475;DHT22;7323;50.848;4.334;2023-09-12T01:22:39;22.60;17.80
14475;DHT22;7323;50.848;4.334;2023-09-12T01:27:55;22.50;31.90
14475;DHT22;7323;50.848;4.334;2023-09-12T01:30:25;22.30;38.70
14475;DHT22;7323;50.848;4.334;2023-09-12T01:32:53;22.20;48.50
14475;DHT22;7323;50.848;4.334;2023-09-12T01:35:19;22.30;50.60
14475;DHT22;7323;50.848;4.334;2023-09-12T01:37:44;22.40;49.80
14475;DHT22;7323;50.848;4.334;2023-09-12T01:40:10;22.40;47.90
14475;DHT22;7323;50.848;4.334;2023-09-12T01:42:41;22.20;55.90
14475;DHT22;7323;50.848;4.334;2023-09-12T01:45:10;22.30;55.70
14475;DHT22;7323;50.848;4.334;2023-09-12T01:47:38;22.30;55.60
14475;DHT22;7323;50.848;4.334;2023-09-12T01:50:09;22.30;58.50
14475;DHT22;7323;50.848;4.334;2023-09-12T01:52:38;22.20;59.50
14475;DHT22;7323;50.848;4.334;2023-09-12T01:55:05;22.20;61.00
14475;DHT22;7323;50.848;4.334;2023-09-12T01:57:34;22.10;65.60
14475;DHT22;7323;50.848;4.334;2023-09-12T02:00:00;22.10;66.40
14475;DHT22;7323;50.848;4.334;2023-09-12T02:02:26;21.90;71.40
14475;DHT22;7323;50.848;4.334;2023-09-12T02:05:09;21.50;80.80
14475;DHT22;7323;50.848;4.334;2023-09-12T02:07:38;21.50;88.60
14475;DHT22;7323;50.848;4.334;2023-09-12T02:10:05;21.40;83.80
14475;DHT22;7323;50.848;4.334;2023-09-12T02:12:31;21.30;84.20
14475;DHT22;7323;50.848;4.334;2023-09-12T02:14:57;21.50;81.70
14475;DHT22;7323;50.848;4.334;2023-09-12T02:17:23;21.40;78.80
14475;DHT22;7323;50.848;4.334;2023-09-12T02:19:51;21.30;83.40
14475;DHT22;7323;50.848;4.334;2023-09-12T02:22:16;21.20;85.20
14475;DHT22;7323;50.848;4.334;2023-09-12T02:24:42;21.20;89.00
14475;DHT22;7323;50.848;4.334;2023-09-12T02:27:08;21.00;91.40
14475;DHT22;7323;50.848;4.334;2023-09-12T02:29:35;20.90;94.60
14475;DHT22;7323;50.848;4.334;2023-09-12T02:32:00;20.90;95.70
14475;DHT22;7323;50.848;4.334;2023-09-12T02:34:26;21.00;93.90
14475;DHT22;7323;50.848;4.334;2023-09-12T02:36:52;21.10;90.50
14475;DHT22;7323;50.848;4.334;2023-09-12T02:39:18;21.20;85.30
14475;DHT22;7323;50.848;4.334;2023-09-12T02:41:44;21.30;81.50
14475;DHT22;7323;50.848;4.334;2023-09-12T02:44:10;21.40;65.30
14475;DHT22;7323;50.848;4.334;2023-09-12T02:46:37;21.30;59.30
14475;DHT22;7323;50.848;4.334;2023-09-12T02:49:02;21.30;59.90
14475;DHT22;7323;50.848;4.334;2023-09-12T02:51:29;21.20;60.20
14475;DHT22;7323;50.848;4.334;2023-09-12T02:53:55;21.30;60.20
14475;DHT22;7323;50.848;4.334;2023-09-12T02:56:20;21.30;57.00
14475;DHT22;7323;50.848;4.334;2023-09-12T02:58:48;21.30;55.20
14475;DHT22;7323;50.848;4.334;2023-09-12T03:01:17;21.30;58.50
14475;DHT22;7323;50.848;4.334;2023-09-12T03:03:45;21.30;63.60
14475;DHT22;7323;50.848;4.334;2023-09-12T03:06:12;21.40;65.90
14475;DHT22;7323;50.848;4.334;2023-09-12T03:08:43;21.50;68.00
14475;DHT22;7323;50.848;4.334;2023-09-12T03:11:09;21.40;53.10
14475;DHT22;7323;50.848;4.334;2023-09-12T03:13:37;21.50;38.50
14475;DHT22;7323;50.848;4.334;2023-09-12T03:16:03;21.60;34.10
14475;DHT22;7323;50.848;4.334;2023-09-12T03:18:29;21.70;30.30
14475;DHT22;7323;50.848;4.334;2023-09-12T03:20:55;21.80;28.00
14475;DHT22;7323;50.848;4.334;2023-09-12T03:23:22;21.80;30.60
14475;DHT22;7323;50.848;4.334;2023-09-12T03:25:47;21.70;40.50
14475;DHT22;7323;50.848;4.334;2023-09-12T03:28:15;21.80;40.40
14475;DHT22;7323;50.848;4.334;2023-09-12T03:30:44;21.90;34.70
14475;DHT22;7323;50.848;4.334;2023-09-12T03:33:09;21.90;33.20
14475;DHT22;7323;50.848;4.334;2023-09-12T03:35:35;21.90;33.00
14475;DHT22;7323;50.848;4.334;2023-09-12T03:38:01;22.00;26.50
14475;DHT22;7323;50.848;4.334;2023-09-12T03:40:31;22.00;20.80
14475;DHT22;7323;50.848;4.334;2023-09-12T03:42:57;22.00;15.10
14475;DHT22;7323;50.848;4.334;2023-09-12T03:45:23;22.00;17.00
14475;DHT22;7323;50.848;4.334;2023-09-12T03:47:49;22.00;11.10
14475;DHT22;7323;50.848;4.334;2023-09-12T03:50:15;22.10;7.70
14475;DHT22;7323;50.848;4.334;2023-09-12T03:52:43;22.10;7.30
14475;DHT22;7323;50.848;4.334;2023-09-12T03:55:11;22.10;5.50
14475;DHT22;7323;50.848;4.334;2023-09-12T03:57:37;22.00;6.50
14475;DHT22;7323;50.848;4.334;2023-09-12T04:00:05;21.90;8.50
14475;DHT22;7323;50.848;4.334;2023-09-12T04:02:31;21.90;7.20
14475;DHT22;7323;50.848;4.334;2023-09-12T04:04:56;22.10;4.20
14475;DHT22;7323;50.848;4.334;2023-09-12T04:07:24;22.00;1.80
14475;DHT22;7323;50.848;4.334;2023-09-12T04:09:50;22.00;1.00
14475;DHT22;7323;50.848;4.334;2023-09-12T04:12:16;22.00;1.00
14475;DHT22;7323;50.848;4.334;2023-09-12T04:14:42;22.10;1.00
14475;DHT22;7323;50.848;4.334;2023-09-12T04:17:08;21.90;1.00
14475;DHT22;7323;50.848;4.334;2023-09-12T04:19:35;22.00;1.00
14475;DHT22;7323;50.848;4.334;2023-09-12T04:22:00;22.00;1.00
14475;DHT22;7323;50.848;4.334;2023-09-12T04:24:26;22.00;1.00
14475;DHT22;7323;50.848;4.334;2023-09-12T04:26:53;22.00;1.00
14475;DHT22;7323;50.848;4.334;2023-09-12T04:29:19;22.20;1.00
14475;DHT22;7323;50.848;4.334;2023-09-12T04:31:44;22.10;1.00
14475;DHT22;7323;50.848;4.334;2023-09-12T04:34:10;22.10;1.00
14475;DHT22;7323;50.848;4.334;2023-09-12T04:36:36;22.00;1.00
14475;DHT22;7323;50.848;4.334;2023-09-12T04:39:01;22.00;1.00
14475;DHT22;7323;50.848;4.334;2023-09-12T04:41:27;21.90;1.00
14475;DHT22;7323;50.848;4.334;2023-09-12T04:43:53;21.90;1.00
14475;DHT22;7323;50.848;4.334;2023-09-12T04:46:19;22.00;1.00
14475;DHT22;7323;50.848;4.334;2023-09-12T04:48:44;21.90;1.00
14475;DHT22;7323;50.848;4.334;2023-09-12T04:51:10;22.00;1.00
14475;DHT22;7323;50.848;4.334;2023-09-12T04:53:36;21.90;1.00
14475;DHT22;7323;50.848;4.334;2023-09-12T04:56:02;22.00;1.00
14475;DHT22;7323;50.848;4.334;2023-09-12T04:58:28;21.90;1.00
14475;DHT22;7323;50.848;4.334;2023-09-12T05:00:54;22.00;1.00
14475;DHT22;7323;50.848;4.334;2023-09-12T05:03:21;22.00;1.00
14475;DHT22;7323;50.848;4.334;2023-09-12T05:05:48;22.00;1.00
14475;DHT22;7323;50.848;4.334;2023-09-12T05:08:15;21.90;1.00
14475;DHT22;7323;50.848;4.334;2023-09-12T05:10:41;21.90;1.00
14475;DHT22;7323;50.848;4.334;2023-09-12T05:13:09;21.90;1.00
14475;DHT22;7323;50.848;4.334;2023-09-12T05:15:34;21.90;1.00
14475;DHT22;7323;50.848;4.334;2023-09-12T05:18:02;21.80;4.70
14475;DHT22;7323;50.848;4.334;2023-09-12T05:20:28;21.70;1.10
14475;DHT22;7323;50.848;4.334;2023-09-12T05:22:54;21.70;1.00
14475;DHT22;7323;50.848;4.334;2023-09-12T05:25:20;21.70;1.00
14475;DHT22;7323;50.848;4.334;2023-09-12T05:27:45;21.70;1.00
14475;DHT22;7323;50.848;4.334;2023-09-12T05:30:11;21.60;7.10
14475;DHT22;7323;50.848;4.334;2023-09-12T05:32:42;21.50;14.70
14475;DHT22;7323;50.848;4.334;2023-09-12T05:35:10;21.50;16.10
14475;DHT22;7323;50.848;4.334;2023-09-12T05:37:36;21.60;17.30
14475;DHT22;7323;50.848;4.334;2023-09-12T05:40:08;21.50;20.40
14475;DHT22;7323;50.848;4.334;2023-09-12T05:42:35;21.40;19.30
14475;DHT22;7323;50.848;4.334;2023-09-12T05:45:01;21.40;21.30
14475;DHT22;7323;50.848;4.334;2023-09-12T05:47:27;21.40;20.70
14475;DHT22;7323;50.848;4.334;2023-09-12T05:49:54;21.30;19.90
14475;DHT22;7323;50.848;4.334;2023-09-12T05:52:19;21.40;23.30
14475;DHT22;7323;50.848;4.334;2023-09-12T05:54:45;21.40;25.10
14475;DHT22;7323;50.848;4.334;2023-09-12T05:57:11;21.50;29.60
14475;DHT22;7323;50.848;4.334;2023-09-12T05:59:38;21.50;25.30
14475;DHT22;7323;50.848;4.334;2023-09-12T06:02:05;21.50;20.90
14475;DHT22;7323;50.848;4.334;2023-09-12T06:04:32;21.60;17.40
14475;DHT22;7323;50.848;4.334;2023-09-12T06:07:14;21.60;15.50
14475;DHT22;7323;50.848;4.334;2023-09-12T06:09:40;21.60;15.80
14475;DHT22;7323;50.848;4.334;2023-09-12T06:12:06;21.60;12.20
14475;DHT22;7323;50.848;4.334;2023-09-12T06:14:37;21.70;9.70
14475;DHT22;7323;50.848;4.334;2023-09-12T06:17:03;21.60;10.80
14475;DHT22;7323;50.848;4.334;2023-09-12T06:19:29;21.60;12.60
14475;DHT22;7323;50.848;4.334;2023-09-12T06:21:56;21.40;19.90
14475;DHT22;7323;50.848;4.334;2023-09-12T06:24:21;21.40;21.90
14475;DHT22;7323;50.848;4.334;2023-09-12T06:26:48;21.30;21.10
14475;DHT22;7323;50.848;4.334;2023-09-12T06:29:14;21.60;12.90
14475;DHT22;7323;50.848;4.334;2023-09-12T06:31:40;21.60;15.10
14475;DHT22;7323;50.848;4.334;2023-09-12T06:34:09;21.60;10.30
14475;DHT22;7323;50.848;4.334;2023-09-12T06:36:38;21.70;2.10
14475;DHT22;7323;50.848;4.334;2023-09-12T06:39:05;21.50;7.90
14475;DHT22;7323;50.848;4.334;2023-09-12T06:41:31;21.60;9.10
14475;DHT22;7323;50.848;4.334;2023-09-12T06:43:57;21.70;10.60
14475;DHT22;7323;50.848;4.334;2023-09-12T06:49:16;21.90;2.50
14475;DHT22;7323;50.848;4.334;2023-09-12T06:51:45;21.90;1.00
14475;DHT22;7323;50.848;4.334;2023-09-12T06:54:12;21.90;1.00
14475;DHT22;7323;50.848;4.334;2023-09-12T06:56:38;21.90;1.00
14475;DHT22;7323;50.848;4.334;2023-09-12T06:59:04;21.90;1.00
14475;DHT22;7323;50.848;4.334;2023-09-12T07:01:31;21.90;1.00
14475;DHT22;7323;50.848;4.334;2023-09-12T07:03:57;21.80;1.00
14475;DHT22;7323;50.848;4.334;2023-09-12T07:06:23;21.90;1.00
14475;DHT22;7323;50.848;4.334;2023-09-12T07:08:49;21.80;1.00
14475;DHT22;7323;50.848;4.334;2023-09-12T07:11:15;21.80;1.00
14475;DHT22;7323;50.848;4.334;2023-09-12T07:13:41;21.70;1.00
14475;DHT22;7323;50.848;4.334;2023-09-12T07:16:06;21.70;4.30
14475;DHT22;7323;50.848;4.334;2023-09-12T07:18:32;21.50;11.90
14475;DHT22;7323;50.848;4.334;2023-09-12T07:21:03;21.50;19.20
14475;DHT22;7323;50.848;4.334;2023-09-12T07:23:29;21.50;21.40
14475;DHT22;7323;50.848;4.334;2023-09-12T07:25:58;21.60;18.20
14475;DHT22;7323;50.848;4.334;2023-09-12T07:28:31;21.70;11.00
14475;DHT22;7323;50.848;4.334;2023-09-12T07:31:00;21.70;1.00
14475;DHT22;7323;50.848;4.334;2023-09-12T07:33:27;21.80;1.00
14475;DHT22;7323;50.848;4.334;2023-09-12T07:35:53;21.80;2.20
14475;DHT22;7323;50.848;4.334;2023-09-12T07:38:20;21.80;6.80
14475;DHT22;7323;50.848;4.334;2023-09-12T07:40:46;21.80;1.00
14475;DHT22;7323;50.848;4.334;2023-09-12T07:43:12;21.90;1.00
14475;DHT22;7323;50.848;4.334;2023-09-12T07:45:38;21.80;1.00
14475;DHT22;7323;50.848;4.334;2023-09-12T07:48:08;21.90;1.30
14475;DHT22;7323;50.848;4.334;2023-09-12T07:50:34;21.90;1.00
14475;DHT22;7323;50.848;4.334;2023-09-12T07:53:02;22.00;1.00
14475;DHT22;7323;50.848;4.334;2023-09-12T07:55:28;22.00;1.00
14475;DHT22;7323;50.848;4.334;2023-09-12T07:57:56;22.10;1.00
14475;DHT22;7323;50.848;4.334;2023-09-12T08:00:22;22.10;1.00
14475;DHT22;7323;50.848;4.334;2023-09-12T08:02:48;22.10;1.00
14475;DHT22;7323;50.848;4.334;2023-09-12T08:05:13;22.20;1.00
14475;DHT22;7323;50.848;4.334;2023-09-12T08:07:40;22.20;1.00
14475;DHT22;7323;50.848;4.334;2023-09-12T08:10:06;22.20;1.00
14475;DHT22;7323;50.848;4.334;2023-09-12T08:12:32;22.40;1.00
14475;DHT22;7323;50.848;4.334;2023-09-12T08:14:58;22.60;1.00
14475;DHT22;7323;50.848;4.334;2023-09-12T08:17:27;22.80;1.00
14475;DHT22;7323;50.848;4.334;2023-09-12T08:19:53;22.90;1.00
14475;DHT22;7323;50.848;4.334;2023-09-12T08:22:19;23.10;1.00
14475;DHT22;7323;50.848;4.334;2023-09-12T08:24:45;23.20;1.00
14475;DHT22;7323;50.848;4.334;2023-09-12T08:27:10;23.40;1.00
14475;DHT22;7323;50.848;4.334;2023-09-12T08:29:37;23.50;1.00
14475;DHT22;7323;50.848;4.334;2023-09-12T08:32:04;23.60;1.00
14475;DHT22;7323;50.848;4.334;2023-09-12T08:34:29;23.70;1.00
14475;DHT22;7323;50.848;4.334;2023-09-12T08:36:55;23.70;1.00
14475;DHT22;7323;50.848;4.334;2023-09-12T08:39:27;23.70;1.00
14475;DHT22;7323;50.848;4.334;2023-09-12T08:42:04;23.70;1.00
14475;DHT22;7323;50.848;4.334;2023-09-12T08:44:31;23.80;1.00
14475;DHT22;7323;50.848;4.334;2023-09-12T08:46:57;23.90;1.00
14475;DHT22;7323;50.848;4.334;2023-09-12T08:49:24;24.10;1.00
14475;DHT22;7323;50.848;4.334;2023-09-12T08:51:50;24.20;1.00
14475;DHT22;7323;50.848;4.334;2023-09-12T08:54:18;24.40;1.00
14475;DHT22;7323;50.848;4.334;2023-09-12T08:56:45;24.40;1.00
14475;DHT22;7323;50.848;4.334;2023-09-12T08:59:11;24.50;1.00
14475;DHT22;7323;50.848;4.334;2023-09-12T09:01:40;24.60;1.00
14475;DHT22;7323;50.848;4.334;2023-09-12T09:04:05;24.60;1.00
14475;DHT22;7323;50.848;4.334;2023-09-12T09:06:32;24.70;1.00
14475;DHT22;7323;50.848;4.334;2023-09-12T09:09:06;24.90;1.00
14475;DHT22;7323;50.848;4.334;2023-09-12T09:11:34;25.00;1.00
14475;DHT22;7323;50.848;4.334;2023-09-12T09:14:02;25.00;1.00
14475;DHT22;7323;50.848;4.334;2023-09-12T09:16:31;25.00;1.00
14475;DHT22;7323;50.848;4.334;2023-09-12T09:19:02;25.10;1.00
14475;DHT22;7323;50.848;4.334;2023-09-12T09:21:31;25.10;1.00
14475;DHT22;7323;50.848;4.334;2023-09-12T09:24:09;25.20;1.00
14475;DHT22;7323;50.848;4.334;2023-09-12T09:26:48;25.30;1.00
14475;DHT22;7323;50.848;4.334;2023-09-12T09:29:19;25.30;1.00
14475;DHT22;7323;50.848;4.334;2023-09-12T09:31:47;25.30;1.00
14475;DHT22;7323;50.848;4.334;2023-09-12T09:34:19;25.40;1.00
14475;DHT22;7323;50.848;4.334;2023-09-12T09:36:49;25.40;1.00
14475;DHT22;7323;50.848;4.334;2023-09-12T09:39:28;25.40;1.00
14475;DHT22;7323;50.848;4.334;2023-09-12T09:41:57;25.30;1.00
14475;DHT22;7323;50.848;4.334;2023-09-12T09:44:25;25.40;1.00
14475;DHT22;7323;50.848;4.334;2023-09-12T09:46:55;25.40;1.00
14475;DHT22;7323;50.848;4.334;2023-09-12T09:49:23;25.40;1.00
14475;DHT22;7323;50.848;4.334;2023-09-12T09:51:49;25.40;1.00
14475;DHT22;7323;50.848;4.334;2023-09-12T09:54:15;25.40;1.00
14475;DHT22;7323;50.848;4.334;2023-09-12T09:56:48;25.50;1.00
14475;DHT22;7323;50.848;4.334;2023-09-12T09:59:18;25.70;1.00
14475;DHT22;7323;50.848;4.334;2023-09-12T10:01:45;25.80;1.00
14475;DHT22;7323;50.848;4.334;2023-09-12T10:04:12;25.60;1.00
14475;DHT22;7323;50.848;4.334;2023-09-12T10:06:38;25.50;1.00
14475;DHT22;7323;50.848;4.334;2023-09-12T10:09:13;25.50;1.00
14475;DHT22;7323;50.848;4.334;2023-09-12T10:11:48;25.40;1.00
14475;DHT22;7323;50.848;4.334;2023-09-12T10:14:20;25.40;1.00
14475;DHT22;7323;50.848;4.334;2023-09-12T10:17:02;25.40;1.00
14475;DHT22;7323;50.848;4.334;2023-09-12T10:19:52;25.50;1.00
14475;DHT22;7323;50.848;4.334;2023-09-12T10:22:29;25.80;1.00
14475;DHT22;7323;50.848;4.334;2023-09-12T10:24:57;26.00;1.00
14475;DHT22;7323;50.848;4.334;2023-09-12T10:27:24;26.10;1.00
14475;DHT22;7323;50.848;4.334;2023-09-12T10:29:54;26.00;1.00
14475;DHT22;7323;50.848;4.334;2023-09-12T10:32:22;26.10;1.00
14475;DHT22;7323;50.848;4.334;2023-09-12T10:34:52;26.10;1.00
14475;DHT22;7323;50.848;4.334;2023-09-12T10:40:20;25.80;1.00
14475;DHT22;7323;50.848;4.334;2023-09-12T10:42:47;25.50;1.00
14475;DHT22;7323;50.848;4.334;2023-09-12T10:45:13;25.40;1.00
14475;DHT22;7323;50.848;4.334;2023-09-12T10:47:40;25.40;1.00
14475;DHT22;7323;50.848;4.334;2023-09-12T10:50:07;25.40;1.00
14475;DHT22;7323;50.848;4.334;2023-09-12T10:52:33;25.50;1.00
14475;DHT22;7323;50.848;4.334;2023-09-12T10:55:16;25.70;1.00
14475;DHT22;7323;50.848;4.334;2023-09-12T11:00:28;26.10;99.90
14475;DHT22;7323;50.848;4.334;2023-09-12T11:02:54;26.20;99.90
14475;DHT22;7323;50.848;4.334;2023-09-12T11:08:01;26.50;99.90
14475;DHT22;7323;50.848;4.334;2023-09-12T11:10:28;26.50;99.90
14475;DHT22;7323;50.848;4.334;2023-09-12T11:12:57;26.30;99.90
14475;DHT22;7323;50.848;4.334;2023-09-12T11:15:24;26.30;99.90
14475;DHT22;7323;50.848;4.334;2023-09-12T11:18:04;26.50;99.90
14475;DHT22;7323;50.848;4.334;2023-09-12T11:20:59;26.80;99.90
14475;DHT22;7323;50.848;4.334;2023-09-12T11:23:25;26.60;99.90
14475;DHT22;7323;50.848;4.334;2023-09-12T11:26:05;26.50;99.90
14475;DHT22;7323;50.848;4.334;2023-09-12T11:28:31;26.20;99.90
14475;DHT22;7323;50.848;4.334;2023-09-12T11:30:58;26.10;99.90
14475;DHT22;7323;50.848;4.334;2023-09-12T11:33:26;26.10;99.90
14475;DHT22;7323;50.848;4.334;2023-09-12T11:35:54;26.30;99.90
14475;DHT22;7323;50.848;4.334;2023-09-12T11:38:31;26.60;99.90
14475;DHT22;7323;50.848;4.334;2023-09-12T11:40:58;26.60;99.90
14475;DHT22;7323;50.848;4.334;2023-09-12T11:43:26;26.60;99.90
14475;DHT22;7323;50.848;4.334;2023-09-12T11:45:54;26.80;99.90
14475;DHT22;7323;50.848;4.334;2023-09-12T11:48:20;26.60;99.90
14475;DHT22;7323;50.848;4.334;2023-09-12T11:50:52;26.50;99.90
14475;DHT22;7323;50.848;4.334;2023-09-12T11:53:22;26.40;99.90
14475;DHT22;7323;50.848;4.334;2023-09-12T11:55:56;26.30;99.90
14475;DHT22;7323;50.848;4.334;2023-09-12T11:58:22;26.50;99.90
14475;DHT22;7323;50.848;4.334;2023-09-12T12:00:52;26.60;99.90
14475;DHT22;7323;50.848;4.334;2023-09-12T12:03:23;26.80;99.90
14475;DHT22;7323;50.848;4.334;2023-09-12T12:05:50;26.80;99.90
14475;DHT22;7323;50.848;4.334;2023-09-12T12:08:17;26.80;99.90
14475;DHT22;7323;50.848;4.334;2023-09-12T12:10:43;26.70;99.90
14475;DHT22;7323;50.848;4.334;2023-09-12T12:13:16;26.70;99.90
14475;DHT22;7323;50.848;4.334;2023-09-12T12:15:42;26.80;99.90
14475;DHT22;7323;50.848;4.334;2023-09-12T12:18:07;27.00;99.90
14475;DHT22;7323;50.848;4.334;2023-09-12T12:20:33;27.00;99.90
14475;DHT22;7323;50.848;4.334;2023-09-12T12:22:59;27.10;99.90
14475;DHT22;7323;50.848;4.334;2023-09-12T12:25:25;26.80;99.90
14475;DHT22;7323;50.848;4.334;2023-09-12T12:27:51;26.70;99.90
14475;DHT22;7323;50.848;4.334;2023-09-12T12:30:18;26.60;99.90
14475;DHT22;7323;50.848;4.334;2023-09-12T12:32:45;26.80;99.90
14475;DHT22;7323;50.848;4.334;2023-09-12T12:35:22;26.90;99.90
14475;DHT22;7323;50.848;4.334;2023-09-12T12:37:49;26.80;99.90
14475;DHT22;7323;50.848;4.334;2023-09-12T12:40:15;26.60;99.90
14475;DHT22;7323;50.848;4.334;2023-09-12T12:42:43;26.30;99.90
14475;DHT22;7323;50.848;4.334;2023-09-12T12:45:16;26.10;99.90
14475;DHT22;7323;50.848;4.334;2023-09-12T12:47:42;25.80;99.90
14475;DHT22;7323;50.848;4.334;2023-09-12T12:50:16;25.80;99.90
14475;DHT22;7323;50.848;4.334;2023-09-12T12:52:47;25.80;99.90
14475;DHT22;7323;50.848;4.334;2023-09-12T12:55:14;25.80;99.90
14475;DHT22;7323;50.848;4.334;2023-09-12T12:57:42;25.80;99.90
14475;DHT22;7323;50.848;4.334;2023-09-12T13:00:10;25.60;99.90
14475;DHT22;7323;50.848;4.334;2023-09-12T13:02:40;25.60;99.90
14475;DHT22;7323;50.848;4.334;2023-09-12T13:05:25;25.70;99.90
14475;DHT22;7323;50.848;4.334;2023-09-12T13:07:51;25.80;99.90
14475;DHT22;7323;50.848;4.334;2023-09-12T13:10:18;25.90;99.90
14475;DHT22;7323;50.848;4.334;2023-09-12T13:12:45;25.70;99.90
14475;DHT22;7323;50.848;4.334;2023-09-12T13:15:13;25.50;99.90
14475;DHT22;7323;50.848;4.334;2023-09-12T13:17:43;25.50;99.90
14475;DHT22;7323;50.848;4.334;2023-09-12T13:20:11;25.80;99.90
14475;DHT22;7323;50.848;4.334;2023-09-12T13:22:37;25.90;99.90
14475;DHT22;7323;50.848;4.334;2023-09-12T13:25:04;25.90;99.90
14475;DHT22;7323;50.848;4.334;2023-09-12T13:27:30;25.60;99.90
14475;DHT22;7323;50.848;4.334;2023-09-12T13:30:02;25.50;99.90
14475;DHT22;7323;50.848;4.334;2023-09-12T13:32:30;25.50;99.90
14475;DHT22;7323;50.848;4.334;2023-09-12T13:34:56;25.30;99.90
14475;DHT22;7323;50.848;4.334;2023-09-12T13:37:22;25.30;99.90
14475;DHT22;7323;50.848;4.334;2023-09-12T13:39:48;25.40;99.90
14475;DHT22;7323;50.848;4.334;2023-09-12T13:42:16;25.50;99.90
14475;DHT22;7323;50.848;4.334;2023-09-12T13:44:49;25.50;99.90
14475;DHT22;7323;50.848;4.334;2023-09-12T13:47:16;25.50;99.90
14475;DHT22;7323;50.848;4.334;2023-09-12T13:49:47;25.50;99.90
14475;DHT22;7323;50.848;4.334;2023-09-12T13:52:13;25.30;99.90
14475;DHT22;7323;50.848;4.334;2023-09-12T13:54:41;25.30;99.90
14475;DHT22;7323;50.848;4.334;2023-09-12T13:57:07;25.30;99.90
14475;DHT22;7323;50.848;4.334;2023-09-12T13:59:33;25.20;99.90
14475;DHT22;7323;50.848;4.334;2023-09-12T14:01:58;25.20;99.90
14475;DHT22;7323;50.848;4.334;2023-09-12T14:04:24;25.10;99.90
14475;DHT22;7323;50.848;4.334;2023-09-12T14:06:50;25.00;99.90
14475;DHT22;7323;50.848;4.334;2023-09-12T14:09:15;25.00;99.90
14475;DHT22;7323;50.848;4.334;2023-09-12T14:11:41;25.00;99.90
14475;DHT22;7323;50.848;4.334;2023-09-12T14:14:07;24.90;99.90
14475;DHT22;7323;50.848;4.334;2023-09-12T14:16:33;24.90;1.00
14475;DHT22;7323;50.848;4.334;2023-09-12T14:18:59;24.90;1.00
14475;DHT22;7323;50.848;4.334;2023-09-12T14:21:25;24.90;1.00
14475;DHT22;7323;50.848;4.334;2023-09-12T14:23:51;24.90;1.00
14475;DHT22;7323;50.848;4.334;2023-09-12T14:26:17;24.80;1.00
14475;DHT22;7323;50.848;4.334;2023-09-12T14:28:42;24.90;1.00
14475;DHT22;7323;50.848;4.334;2023-09-12T14:31:08;25.00;1.00
14475;DHT22;7323;50.848;4.334;2023-09-12T14:33:39;25.00;1.00
14475;DHT22;7323;50.848;4.334;2023-09-12T14:36:08;24.90;1.00
14475;DHT22;7323;50.848;4.334;2023-09-12T14:38:43;24.90;99.90
14475;DHT22;7323;50.848;4.334;2023-09-12T14:41:12;24.90;99.90
14475;DHT22;7323;50.848;4.334;2023-09-12T14:43:38;24.80;1.00
14475;DHT22;7323;50.848;4.334;2023-09-12T14:46:05;24.80;1.00
14475;DHT22;7323;50.848;4.334;2023-09-12T14:48:34;24.80;1.00
14475;DHT22;7323;50.848;4.334;2023-09-12T14:51:01;24.70;1.00
14475;DHT22;7323;50.848;4.334;2023-09-12T14:53:27;24.60;1.00
14475;DHT22;7323;50.848;4.334;2023-09-12T14:55:53;24.50;1.00
14475;DHT22;7323;50.848;4.334;2023-09-12T14:58:20;24.60;1.00
14475;DHT22;7323;50.848;4.334;2023-09-12T15:00:46;24.60;1.00
14475;DHT22;7323;50.848;4.334;2023-09-12T15:03:12;24.50;1.00
14475;DHT22;7323;50.848;4.334;2023-09-12T15:05:37;24.60;1.00
14475;DHT22;7323;50.848;4.334;2023-09-12T15:08:04;24.70;1.00
14475;DHT22;7323;50.848;4.334;2023-09-12T15:10:33;24.60;1.00
14475;DHT22;7323;50.848;4.334;2023-09-12T15:13:00;24.50;1.00
14475;DHT22;7323;50.848;4.334;2023-09-12T15:15:28;24.40;1.00
14475;DHT22;7323;50.848;4.334;2023-09-12T15:17:54;24.20;1.00
14475;DHT22;7323;50.848;4.334;2023-09-12T15:20:20;24.20;1.00
14475;DHT22;7323;50.848;4.334;2023-09-12T15:22:46;24.30;1.00
14475;DHT22;7323;50.848;4.334;2023-09-12T15:25:12;24.40;1.00
14475;DHT22;7323;50.848;4.334;2023-09-12T15:27:38;24.50;1.00
14475;DHT22;7323;50.848;4.334;2023-09-12T15:30:04;24.40;1.00
14475;DHT22;7323;50.848;4.334;2023-09-12T15:32:31;24.40;1.00
14475;DHT22;7323;50.848;4.334;2023-09-12T15:34:56;24.30;1.00
14475;DHT22;7323;50.848;4.334;2023-09-12T15:37:22;24.20;1.00
14475;DHT22;7323;50.848;4.334;2023-09-12T15:39:49;24.10;1.00
14475;DHT22;7323;50.848;4.334;2023-09-12T15:42:15;24.10;1.00
14475;DHT22;7323;50.848;4.334;2023-09-12T15:44:41;24.20;1.00
14475;DHT22;7323;50.848;4.334;2023-09-12T15:47:10;24.30;1.00
14475;DHT22;7323;50.848;4.334;2023-09-12T15:49:35;24.20;1.00
14475;DHT22;7323;50.848;4.334;2023-09-12T15:52:02;24.10;1.00
14475;DHT22;7323;50.848;4.334;2023-09-12T15:54:28;24.10;1.00
14475;DHT22;7323;50.848;4.334;2023-09-12T15:56:56;24.20;1.00
14475;DHT22;7323;50.848;4.334;2023-09-12T15:59:21;24.10;1.00
14475;DHT22;7323;50.848;4.334;2023-09-12T16:01:47;23.80;1.00
14475;DHT22;7323;50.848;4.334;2023-09-12T16:04:13;23.70;1.00
14475;DHT22;7323;50.848;4.334;2023-09-12T16:06:39;23.70;1.00
14475;DHT22;7323;50.848;4.334;2023-09-12T16:09:04;23.60;1.00
14475;DHT22;7323;50.848;4.334;2023-09-12T16:11:33;23.70;1.00